Terminal Aerodrome Forecast
Issued by NWS

Home | Current Version | Previous Version | Text Only | Print | Product List | Glossary On
Versions: 1 2 3 4 5 6 7 8 9 10 11 12
000
FTUS45 KTFX 171100
TAFLWT
TAF
KLWT 171120Z 1712/1812 VRB06KT P6SM SCT090 BKN150
     FM172100 VRB06KT P6SM VCTS SCT070CB BKN150
     FM180200 14006KT P6SM BKN180=

USA.gov is the U.S. government's official web portal to all federal, state and local government web resources and services.